sensor_id;sensor_type;location;lat;lon;timestamp;temperature;humidity
19829;DHT22;10075;50.924;4.396;2022-07-05T00:01:23;17.10;99.90
19829;DHT22;10075;50.924;4.396;2022-07-05T00:03:50;17.10;99.90
19829;DHT22;10075;50.924;4.396;2022-07-05T00:06:17;17.00;99.90
19829;DHT22;10075;50.924;4.396;2022-07-05T00:08:44;17.00;99.90
19829;DHT22;10075;50.924;4.396;2022-07-05T00:11:11;17.00;99.90
19829;DHT22;10075;50.924;4.396;2022-07-05T00:13:38;17.00;99.90
19829;DHT22;10075;50.924;4.396;2022-07-05T00:16:07;16.90;99.90
19829;DHT22;10075;50.924;4.396;2022-07-05T00:18:34;16.80;99.90
19829;DHT22;10075;50.924;4.396;2022-07-05T00:21:01;16.80;99.90
19829;DHT22;10075;50.924;4.396;2022-07-05T00:23:28;16.80;99.90
19829;DHT22;10075;50.924;4.396;2022-07-05T00:25:55;16.70;99.90
19829;DHT22;10075;50.924;4.396;2022-07-05T00:28:22;16.70;99.90
19829;DHT22;10075;50.924;4.396;2022-07-05T00:30:49;16.70;99.90
19829;DHT22;10075;50.924;4.396;2022-07-05T00:33:17;16.70;99.90
19829;DHT22;10075;50.924;4.396;2022-07-05T00:35:45;16.70;99.90
19829;DHT22;10075;50.924;4.396;2022-07-05T00:38:11;16.60;99.90
19829;DHT22;10075;50.924;4.396;2022-07-05T00:40:38;16.50;99.90
19829;DHT22;10075;50.924;4.396;2022-07-05T00:43:05;16.50;99.90
19829;DHT22;10075;50.924;4.396;2022-07-05T00:45:32;16.50;99.90
19829;DHT22;10075;50.924;4.396;2022-07-05T00:47:59;16.50;99.90
19829;DHT22;10075;50.924;4.396;2022-07-05T00:50:28;16.40;99.90
19829;DHT22;10075;50.924;4.396;2022-07-05T00:52:55;16.40;99.90
19829;DHT22;10075;50.924;4.396;2022-07-05T00:55:23;16.30;99.90
19829;DHT22;10075;50.924;4.396;2022-07-05T00:57:50;16.30;99.90
19829;DHT22;10075;50.924;4.396;2022-07-05T01:00:17;16.20;99.90
19829;DHT22;10075;50.924;4.396;2022-07-05T01:02:45;16.20;99.90
19829;DHT22;10075;50.924;4.396;2022-07-05T01:05:12;16.20;99.90
19829;DHT22;10075;50.924;4.396;2022-07-05T01:07:40;16.10;99.90
19829;DHT22;10075;50.924;4.396;2022-07-05T01:10:08;16.20;99.90
19829;DHT22;10075;50.924;4.396;2022-07-05T01:12:38;16.10;99.90
19829;DHT22;10075;50.924;4.396;2022-07-05T01:15:06;16.10;99.90
19829;DHT22;10075;50.924;4.396;2022-07-05T01:17:33;16.00;99.90
19829;DHT22;10075;50.924;4.396;2022-07-05T01:20:01;16.00;99.90
19829;DHT22;10075;50.924;4.396;2022-07-05T01:22:32;16.00;99.90
19829;DHT22;10075;50.924;4.396;2022-07-05T01:25:06;16.00;99.90
19829;DHT22;10075;50.924;4.396;2022-07-05T01:27:33;15.90;99.90
19829;DHT22;10075;50.924;4.396;2022-07-05T01:30:00;15.90;99.90
19829;DHT22;10075;50.924;4.396;2022-07-05T01:32:28;15.90;99.90
19829;DHT22;10075;50.924;4.396;2022-07-05T01:34:55;15.80;99.90
19829;DHT22;10075;50.924;4.396;2022-07-05T01:37:22;15.90;99.90
19829;DHT22;10075;50.924;4.396;2022-07-05T01:39:51;15.80;99.90
19829;DHT22;10075;50.924;4.396;2022-07-05T01:42:19;15.90;99.90
19829;DHT22;10075;50.924;4.396;2022-07-05T01:44:46;15.90;99.90
19829;DHT22;10075;50.924;4.396;2022-07-05T01:47:13;15.90;99.90
19829;DHT22;10075;50.924;4.396;2022-07-05T01:49:46;15.90;99.90
19829;DHT22;10075;50.924;4.396;2022-07-05T01:52:13;15.90;99.90
19829;DHT22;10075;50.924;4.396;2022-07-05T01:54:42;15.80;99.90
19829;DHT22;10075;50.924;4.396;2022-07-05T01:57:11;15.80;99.90
19829;DHT22;10075;50.924;4.396;2022-07-05T01:59:38;15.70;99.90
19829;DHT22;10075;50.924;4.396;2022-07-05T02:02:07;15.70;99.90
19829;DHT22;10075;50.924;4.396;2022-07-05T02:04:37;15.70;99.90
19829;DHT22;10075;50.924;4.396;2022-07-05T02:07:04;15.60;99.90
19829;DHT22;10075;50.924;4.396;2022-07-05T02:09:32;15.60;99.90
19829;DHT22;10075;50.924;4.396;2022-07-05T02:11:59;15.50;99.90
19829;DHT22;10075;50.924;4.396;2022-07-05T02:14:27;15.50;99.90
19829;DHT22;10075;50.924;4.396;2022-07-05T02:16:54;15.50;99.90
19829;DHT22;10075;50.924;4.396;2022-07-05T02:19:21;15.40;99.90
19829;DHT22;10075;50.924;4.396;2022-07-05T02:21:49;15.40;99.90
19829;DHT22;10075;50.924;4.396;2022-07-05T02:24:16;15.40;99.90
19829;DHT22;10075;50.924;4.396;2022-07-05T02:26:43;15.30;99.90
19829;DHT22;10075;50.924;4.396;2022-07-05T02:29:10;15.30;99.90
19829;DHT22;10075;50.924;4.396;2022-07-05T02:31:38;15.20;99.90
19829;DHT22;10075;50.924;4.396;2022-07-05T02:34:05;15.20;99.90
19829;DHT22;10075;50.924;4.396;2022-07-05T02:36:32;15.20;99.90
19829;DHT22;10075;50.924;4.396;2022-07-05T02:38:59;15.20;99.90
19829;DHT22;10075;50.924;4.396;2022-07-05T02:41:26;15.10;99.90
19829;DHT22;10075;50.924;4.396;2022-07-05T02:43:53;15.20;99.90
19829;DHT22;10075;50.924;4.396;2022-07-05T02:46:20;15.10;99.90
19829;DHT22;10075;50.924;4.396;2022-07-05T02:48:50;15.10;99.90
19829;DHT22;10075;50.924;4.396;2022-07-05T02:51:17;15.10;99.90
19829;DHT22;10075;50.924;4.396;2022-07-05T02:53:44;15.10;99.90
19829;DHT22;10075;50.924;4.396;2022-07-05T02:56:11;15.10;99.90
19829;DHT22;10075;50.924;4.396;2022-07-05T02:58:38;15.20;99.90
19829;DHT22;10075;50.924;4.396;2022-07-05T03:01:05;15.20;99.90
19829;DHT22;10075;50.924;4.396;2022-07-05T03:03:32;15.20;99.90
19829;DHT22;10075;50.924;4.396;2022-07-05T03:06:00;15.20;99.90
19829;DHT22;10075;50.924;4.396;2022-07-05T03:08:27;15.20;99.90
19829;DHT22;10075;50.924;4.396;2022-07-05T03:10:54;15.20;99.90
19829;DHT22;10075;50.924;4.396;2022-07-05T03:13:21;15.20;99.90
19829;DHT22;10075;50.924;4.396;2022-07-05T03:15:48;15.20;99.90
19829;DHT22;10075;50.924;4.396;2022-07-05T03:18:15;15.20;99.90
19829;DHT22;10075;50.924;4.396;2022-07-05T03:20:42;15.20;99.90
19829;DHT22;10075;50.924;4.396;2022-07-05T03:23:10;15.10;99.90
19829;DHT22;10075;50.924;4.396;2022-07-05T03:25:37;15.10;99.90
19829;DHT22;10075;50.924;4.396;2022-07-05T03:28:04;15.20;99.90
19829;DHT22;10075;50.924;4.396;2022-07-05T03:30:31;15.20;99.90
19829;DHT22;10075;50.924;4.396;2022-07-05T03:32:58;15.20;99.90
19829;DHT22;10075;50.924;4.396;2022-07-05T03:35:26;15.20;99.90
19829;DHT22;10075;50.924;4.396;2022-07-05T03:37:53;15.20;99.90
19829;DHT22;10075;50.924;4.396;2022-07-05T03:40:22;15.20;99.90
19829;DHT22;10075;50.924;4.396;2022-07-05T03:42:49;15.10;99.90
19829;DHT22;10075;50.924;4.396;2022-07-05T03:45:16;15.10;99.90
19829;DHT22;10075;50.924;4.396;2022-07-05T03:47:43;15.10;99.90
19829;DHT22;10075;50.924;4.396;2022-07-05T03:50:10;15.10;99.90
19829;DHT22;10075;50.924;4.396;2022-07-05T03:52:37;15.10;99.90
19829;DHT22;10075;50.924;4.396;2022-07-05T03:55:04;15.20;99.90
19829;DHT22;10075;50.924;4.396;2022-07-05T03:57:32;15.20;99.90
19829;DHT22;10075;50.924;4.396;2022-07-05T04:00:00;15.10;99.90
19829;DHT22;10075;50.924;4.396;2022-07-05T04:02:27;15.20;99.90
19829;DHT22;10075;50.924;4.396;2022-07-05T04:04:53;15.20;99.90
19829;DHT22;10075;50.924;4.396;2022-07-05T04:07:21;15.10;99.90
19829;DHT22;10075;50.924;4.396;2022-07-05T04:09:47;15.10;99.90
19829;DHT22;10075;50.924;4.396;2022-07-05T04:12:14;15.10;99.90
19829;DHT22;10075;50.924;4.396;2022-07-05T04:14:43;15.00;99.90
19829;DHT22;10075;50.924;4.396;2022-07-05T04:17:10;15.00;99.90
19829;DHT22;10075;50.924;4.396;2022-07-05T04:19:37;15.00;99.90
19829;DHT22;10075;50.924;4.396;2022-07-05T04:22:04;15.00;99.90
19829;DHT22;10075;50.924;4.396;2022-07-05T04:24:31;15.10;99.90
19829;DHT22;10075;50.924;4.396;2022-07-05T04:27:18;15.10;99.90
19829;DHT22;10075;50.924;4.396;2022-07-05T04:29:46;15.10;99.90
19829;DHT22;10075;50.924;4.396;2022-07-05T04:32:13;15.20;99.90
19829;DHT22;10075;50.924;4.396;2022-07-05T04:34:40;15.20;99.90
19829;DHT22;10075;50.924;4.396;2022-07-05T04:37:07;15.30;99.90
19829;DHT22;10075;50.924;4.396;2022-07-05T04:39:34;15.40;99.90
19829;DHT22;10075;50.924;4.396;2022-07-05T04:42:01;15.50;99.90
19829;DHT22;10075;50.924;4.396;2022-07-05T04:44:28;15.50;99.90
19829;DHT22;10075;50.924;4.396;2022-07-05T04:46:56;15.60;99.90
19829;DHT22;10075;50.924;4.396;2022-07-05T04:49:23;15.70;99.90
19829;DHT22;10075;50.924;4.396;2022-07-05T04:51:50;15.70;99.90
19829;DHT22;10075;50.924;4.396;2022-07-05T04:54:17;15.80;99.90
19829;DHT22;10075;50.924;4.396;2022-07-05T04:56:44;15.90;99.90
19829;DHT22;10075;50.924;4.396;2022-07-05T04:59:11;15.90;99.90
19829;DHT22;10075;50.924;4.396;2022-07-05T05:01:38;16.00;99.90
19829;DHT22;10075;50.924;4.396;2022-07-05T05:04:07;16.00;99.90
19829;DHT22;10075;50.924;4.396;2022-07-05T05:06:34;16.10;99.90
19829;DHT22;10075;50.924;4.396;2022-07-05T05:09:01;16.10;99.90
19829;DHT22;10075;50.924;4.396;2022-07-05T05:11:28;16.10;99.90
19829;DHT22;10075;50.924;4.396;2022-07-05T05:13:55;16.20;99.90
19829;DHT22;10075;50.924;4.396;2022-07-05T05:16:22;16.30;99.90
19829;DHT22;10075;50.924;4.396;2022-07-05T05:18:49;16.30;99.90
19829;DHT22;10075;50.924;4.396;2022-07-05T05:21:17;16.40;99.90
19829;DHT22;10075;50.924;4.396;2022-07-05T05:23:44;16.60;99.90
19829;DHT22;10075;50.924;4.396;2022-07-05T05:26:11;16.60;99.90
19829;DHT22;10075;50.924;4.396;2022-07-05T05:28:38;16.70;99.90
19829;DHT22;10075;50.924;4.396;2022-07-05T05:31:06;16.70;99.90
19829;DHT22;10075;50.924;4.396;2022-07-05T05:33:33;16.70;99.90
19829;DHT22;10075;50.924;4.396;2022-07-05T05:36:00;16.70;99.90
19829;DHT22;10075;50.924;4.396;2022-07-05T05:38:29;16.80;99.90
19829;DHT22;10075;50.924;4.396;2022-07-05T05:40:56;16.80;99.90
19829;DHT22;10075;50.924;4.396;2022-07-05T05:43:23;16.90;99.90
19829;DHT22;10075;50.924;4.396;2022-07-05T05:45:50;17.00;99.90
19829;DHT22;10075;50.924;4.396;2022-07-05T05:48:17;17.00;99.90
19829;DHT22;10075;50.924;4.396;2022-07-05T05:50:46;17.10;99.90
19829;DHT22;10075;50.924;4.396;2022-07-05T05:53:13;17.20;99.90
19829;DHT22;10075;50.924;4.396;2022-07-05T05:55:42;17.30;99.90
19829;DHT22;10075;50.924;4.396;2022-07-05T05:58:12;17.30;99.90
19829;DHT22;10075;50.924;4.396;2022-07-05T06:00:39;17.40;99.90
19829;DHT22;10075;50.924;4.396;2022-07-05T06:03:06;17.50;99.90
19829;DHT22;10075;50.924;4.396;2022-07-05T06:05:33;17.60;99.90
19829;DHT22;10075;50.924;4.396;2022-07-05T06:08:00;17.60;99.90
19829;DHT22;10075;50.924;4.396;2022-07-05T06:10:29;17.60;99.90
19829;DHT22;10075;50.924;4.396;2022-07-05T06:13:00;17.70;99.90
19829;DHT22;10075;50.924;4.396;2022-07-05T06:15:28;17.80;99.90
19829;DHT22;10075;50.924;4.396;2022-07-05T06:17:55;17.80;99.90
19829;DHT22;10075;50.924;4.396;2022-07-05T06:20:24;17.80;99.90
19829;DHT22;10075;50.924;4.396;2022-07-05T06:22:52;17.80;99.90
19829;DHT22;10075;50.924;4.396;2022-07-05T06:25:19;17.90;99.90
19829;DHT22;10075;50.924;4.396;2022-07-05T06:27:48;18.00;99.90
19829;DHT22;10075;50.924;4.396;2022-07-05T06:30:18;18.00;99.90
19829;DHT22;10075;50.924;4.396;2022-07-05T06:32:47;18.10;99.90
19829;DHT22;10075;50.924;4.396;2022-07-05T06:35:14;18.10;99.90
19829;DHT22;10075;50.924;4.396;2022-07-05T06:37:43;18.10;99.90
19829;DHT22;10075;50.924;4.396;2022-07-05T06:40:11;18.20;99.90
19829;DHT22;10075;50.924;4.396;2022-07-05T06:42:38;18.40;99.90
19829;DHT22;10075;50.924;4.396;2022-07-05T06:45:06;18.40;99.90
19829;DHT22;10075;50.924;4.396;2022-07-05T06:47:35;18.60;99.90
19829;DHT22;10075;50.924;4.396;2022-07-05T06:50:02;18.60;99.90
19829;DHT22;10075;50.924;4.396;2022-07-05T06:52:29;18.60;99.90
19829;DHT22;10075;50.924;4.396;2022-07-05T06:54:57;18.50;99.90
19829;DHT22;10075;50.924;4.396;2022-07-05T06:57:24;18.50;99.90
19829;DHT22;10075;50.924;4.396;2022-07-05T06:59:51;18.40;99.90
19829;DHT22;10075;50.924;4.396;2022-07-05T07:02:19;18.50;99.90
19829;DHT22;10075;50.924;4.396;2022-07-05T07:04:48;18.50;99.90
19829;DHT22;10075;50.924;4.396;2022-07-05T07:07:15;18.60;99.90
19829;DHT22;10075;50.924;4.396;2022-07-05T07:10:00;18.60;99.90
19829;DHT22;10075;50.924;4.396;2022-07-05T07:12:27;18.80;99.90
19829;DHT22;10075;50.924;4.396;2022-07-05T07:14:55;18.80;99.90
19829;DHT22;10075;50.924;4.396;2022-07-05T07:17:22;18.90;99.90
19829;DHT22;10075;50.924;4.396;2022-07-05T07:19:51;18.90;99.90
19829;DHT22;10075;50.924;4.396;2022-07-05T07:22:18;18.90;99.90
19829;DHT22;10075;50.924;4.396;2022-07-05T07:24:45;19.00;99.90
19829;DHT22;10075;50.924;4.396;2022-07-05T07:27:12;19.10;99.90
19829;DHT22;10075;50.924;4.396;2022-07-05T07:29:39;19.20;99.90
19829;DHT22;10075;50.924;4.396;2022-07-05T07:32:07;19.30;99.90
19829;DHT22;10075;50.924;4.396;2022-07-05T07:34:35;19.50;99.90
19829;DHT22;10075;50.924;4.396;2022-07-05T07:37:04;19.60;99.90
19829;DHT22;10075;50.924;4.396;2022-07-05T07:39:32;19.80;99.90
19829;DHT22;10075;50.924;4.396;2022-07-05T07:41:59;19.90;99.90
19829;DHT22;10075;50.924;4.396;2022-07-05T07:44:26;20.30;99.90
19829;DHT22;10075;50.924;4.396;2022-07-05T07:46:53;20.60;99.90
19829;DHT22;10075;50.924;4.396;2022-07-05T07:49:20;21.10;99.90
19829;DHT22;10075;50.924;4.396;2022-07-05T07:51:47;21.40;99.90
19829;DHT22;10075;50.924;4.396;2022-07-05T07:54:16;21.50;99.90
19829;DHT22;10075;50.924;4.396;2022-07-05T07:56:43;21.50;99.90
19829;DHT22;10075;50.924;4.396;2022-07-05T07:59:10;21.60;99.90
19829;DHT22;10075;50.924;4.396;2022-07-05T08:01:37;21.50;99.90
19829;DHT22;10075;50.924;4.396;2022-07-05T08:04:04;21.40;99.90
19829;DHT22;10075;50.924;4.396;2022-07-05T08:06:31;21.30;99.90
19829;DHT22;10075;50.924;4.396;2022-07-05T08:08:58;21.40;99.90
19829;DHT22;10075;50.924;4.396;2022-07-05T08:11:26;21.50;99.90
19829;DHT22;10075;50.924;4.396;2022-07-05T08:13:53;21.80;99.90
19829;DHT22;10075;50.924;4.396;2022-07-05T08:16:20;22.00;99.90
19829;DHT22;10075;50.924;4.396;2022-07-05T08:18:47;22.00;99.90
19829;DHT22;10075;50.924;4.396;2022-07-05T08:21:31;22.10;99.90
19829;DHT22;10075;50.924;4.396;2022-07-05T08:24:02;22.10;99.90
19829;DHT22;10075;50.924;4.396;2022-07-05T08:26:31;22.20;99.90
19829;DHT22;10075;50.924;4.396;2022-07-05T08:28:58;22.30;99.90
19829;DHT22;10075;50.924;4.396;2022-07-05T08:31:27;22.20;99.90
19829;DHT22;10075;50.924;4.396;2022-07-05T08:33:54;22.30;99.90
19829;DHT22;10075;50.924;4.396;2022-07-05T08:36:22;22.40;99.90
19829;DHT22;10075;50.924;4.396;2022-07-05T08:38:49;22.30;99.90
19829;DHT22;10075;50.924;4.396;2022-07-05T08:41:18;22.20;99.90
19829;DHT22;10075;50.924;4.396;2022-07-05T08:43:47;22.10;99.90
19829;DHT22;10075;50.924;4.396;2022-07-05T08:46:15;22.00;99.90
19829;DHT22;10075;50.924;4.396;2022-07-05T08:48:46;22.10;99.90
19829;DHT22;10075;50.924;4.396;2022-07-05T08:51:15;22.20;99.90
19829;DHT22;10075;50.924;4.396;2022-07-05T08:53:44;22.50;99.90
19829;DHT22;10075;50.924;4.396;2022-07-05T08:56:13;22.70;99.60
19829;DHT22;10075;50.924;4.396;2022-07-05T08:58:40;23.00;98.90
19829;DHT22;10075;50.924;4.396;2022-07-05T09:01:10;23.20;98.60
19829;DHT22;10075;50.924;4.396;2022-07-05T09:03:39;23.20;98.10
19829;DHT22;10075;50.924;4.396;2022-07-05T09:06:11;23.20;98.20
19829;DHT22;10075;50.924;4.396;2022-07-05T09:08:39;23.30;98.10
19829;DHT22;10075;50.924;4.396;2022-07-05T09:11:07;23.40;98.00
19829;DHT22;10075;50.924;4.396;2022-07-05T09:13:35;23.30;98.00
19829;DHT22;10075;50.924;4.396;2022-07-05T09:16:03;23.20;98.20
19829;DHT22;10075;50.924;4.396;2022-07-05T09:18:46;23.10;98.60
19829;DHT22;10075;50.924;4.396;2022-07-05T09:21:15;23.30;98.30
19829;DHT22;10075;50.924;4.396;2022-07-05T09:23:42;23.40;97.60
19829;DHT22;10075;50.924;4.396;2022-07-05T09:26:12;23.40;97.60
19829;DHT22;10075;50.924;4.396;2022-07-05T09:28:54;23.40;97.70
19829;DHT22;10075;50.924;4.396;2022-07-05T09:31:29;23.50;97.50
19829;DHT22;10075;50.924;4.396;2022-07-05T09:34:07;23.40;97.40
19829;DHT22;10075;50.924;4.396;2022-07-05T09:36:52;23.60;96.80
19829;DHT22;10075;50.924;4.396;2022-07-05T09:39:37;23.50;97.10
19829;DHT22;10075;50.924;4.396;2022-07-05T09:42:12;23.70;96.50
19829;DHT22;10075;50.924;4.396;2022-07-05T09:44:42;24.00;96.50
19829;DHT22;10075;50.924;4.396;2022-07-05T09:47:10;24.30;95.30
19829;DHT22;10075;50.924;4.396;2022-07-05T09:49:41;24.50;95.10
19829;DHT22;10075;50.924;4.396;2022-07-05T09:52:09;24.70;94.60
19829;DHT22;10075;50.924;4.396;2022-07-05T09:54:36;24.80;94.30
19829;DHT22;10075;50.924;4.396;2022-07-05T09:57:04;24.90;94.40
19829;DHT22;10075;50.924;4.396;2022-07-05T09:59:31;25.00;94.00
19829;DHT22;10075;50.924;4.396;2022-07-05T10:01:57;24.90;92.80
19829;DHT22;10075;50.924;4.396;2022-07-05T10:04:24;24.90;92.80
19829;DHT22;10075;50.924;4.396;2022-07-05T10:06:53;24.80;92.60
19829;DHT22;10075;50.924;4.396;2022-07-05T10:09:20;24.80;92.70
19829;DHT22;10075;50.924;4.396;2022-07-05T10:11:48;24.90;92.70
19829;DHT22;10075;50.924;4.396;2022-07-05T10:14:18;25.20;91.50
19829;DHT22;10075;50.924;4.396;2022-07-05T10:19:33;25.80;91.10
19829;DHT22;10075;50.924;4.396;2022-07-05T10:22:03;26.10;87.80
19829;DHT22;10075;50.924;4.396;2022-07-05T10:24:34;26.10;87.30
19829;DHT22;10075;50.924;4.396;2022-07-05T10:27:05;26.10;86.80
19829;DHT22;10075;50.924;4.396;2022-07-05T10:29:33;26.10;88.90
19829;DHT22;10075;50.924;4.396;2022-07-05T10:32:01;26.00;90.00
19829;DHT22;10075;50.924;4.396;2022-07-05T10:34:29;26.00;89.40
19829;DHT22;10075;50.924;4.396;2022-07-05T10:36:57;26.00;88.30
19829;DHT22;10075;50.924;4.396;2022-07-05T10:39:26;26.10;89.40
19829;DHT22;10075;50.924;4.396;2022-07-05T10:41:54;26.10;87.60
19829;DHT22;10075;50.924;4.396;2022-07-05T10:44:26;26.10;88.40
19829;DHT22;10075;50.924;4.396;2022-07-05T10:47:07;26.10;88.10
19829;DHT22;10075;50.924;4.396;2022-07-05T10:49:36;26.10;86.60
19829;DHT22;10075;50.924;4.396;2022-07-05T10:52:04;26.10;87.20
19829;DHT22;10075;50.924;4.396;2022-07-05T10:54:33;26.10;86.80
19829;DHT22;10075;50.924;4.396;2022-07-05T10:57:22;26.10;86.70
19829;DHT22;10075;50.924;4.396;2022-07-05T11:00:05;26.00;87.40
19829;DHT22;10075;50.924;4.396;2022-07-05T11:02:33;25.80;89.10
19829;DHT22;10075;50.924;4.396;2022-07-05T11:05:00;25.70;89.90
19829;DHT22;10075;50.924;4.396;2022-07-05T11:07:58;25.50;89.20
19829;DHT22;10075;50.924;4.396;2022-07-05T11:10:27;25.60;90.10
19829;DHT22;10075;50.924;4.396;2022-07-05T11:12:57;25.50;90.60
19829;DHT22;10075;50.924;4.396;2022-07-05T11:15:24;25.60;91.20
19829;DHT22;10075;50.924;4.396;2022-07-05T11:18:14;25.70;89.10
19829;DHT22;10075;50.924;4.396;2022-07-05T11:20:41;26.00;90.10
19829;DHT22;10075;50.924;4.396;2022-07-05T11:23:13;26.20;85.10
19829;DHT22;10075;50.924;4.396;2022-07-05T11:25:45;26.40;86.00
19829;DHT22;10075;50.924;4.396;2022-07-05T11:28:19;26.50;85.60
19829;DHT22;10075;50.924;4.396;2022-07-05T11:30:50;26.70;84.40
19829;DHT22;10075;50.924;4.396;2022-07-05T11:33:28;26.80;83.50
19829;DHT22;10075;50.924;4.396;2022-07-05T11:35:55;26.90;83.50
19829;DHT22;10075;50.924;4.396;2022-07-05T11:38:23;26.80;83.20
19829;DHT22;10075;50.924;4.396;2022-07-05T11:40:51;26.70;84.50
19829;DHT22;10075;50.924;4.396;2022-07-05T11:43:25;26.60;83.60
19829;DHT22;10075;50.924;4.396;2022-07-05T11:45:56;26.40;82.10
19829;DHT22;10075;50.924;4.396;2022-07-05T11:48:25;26.30;82.80
19829;DHT22;10075;50.924;4.396;2022-07-05T11:50:52;26.40;83.80
19829;DHT22;10075;50.924;4.396;2022-07-05T11:53:26;26.60;83.60
19829;DHT22;10075;50.924;4.396;2022-07-05T11:55:57;26.70;83.30
19829;DHT22;10075;50.924;4.396;2022-07-05T11:58:30;26.80;83.80
19829;DHT22;10075;50.924;4.396;2022-07-05T12:00:59;26.80;82.70
19829;DHT22;10075;50.924;4.396;2022-07-05T12:03:27;26.60;84.00
19829;DHT22;10075;50.924;4.396;2022-07-05T12:05:54;26.40;84.90
19829;DHT22;10075;50.924;4.396;2022-07-05T12:08:21;26.20;85.40
19829;DHT22;10075;50.924;4.396;2022-07-05T12:10:48;26.20;84.40
19829;DHT22;10075;50.924;4.396;2022-07-05T12:13:44;26.30;84.10
19829;DHT22;10075;50.924;4.396;2022-07-05T12:16:12;26.30;83.40
19829;DHT22;10075;50.924;4.396;2022-07-05T12:18:49;26.40;84.10
19829;DHT22;10075;50.924;4.396;2022-07-05T12:21:17;26.60;82.90
19829;DHT22;10075;50.924;4.396;2022-07-05T12:23:46;26.70;82.20
19829;DHT22;10075;50.924;4.396;2022-07-05T12:26:14;26.70;83.30
19829;DHT22;10075;50.924;4.396;2022-07-05T12:28:43;26.50;84.30
19829;DHT22;10075;50.924;4.396;2022-07-05T12:31:21;26.50;83.50
19829;DHT22;10075;50.924;4.396;2022-07-05T12:33:49;26.20;84.50
19829;DHT22;10075;50.924;4.396;2022-07-05T12:36:18;26.10;84.30
19829;DHT22;10075;50.924;4.396;2022-07-05T12:38:45;25.90;84.80
19829;DHT22;10075;50.924;4.396;2022-07-05T12:41:21;25.80;85.90
19829;DHT22;10075;50.924;4.396;2022-07-05T12:43:52;25.70;85.90
19829;DHT22;10075;50.924;4.396;2022-07-05T12:46:20;25.60;87.70
19829;DHT22;10075;50.924;4.396;2022-07-05T12:48:52;25.80;86.60
19829;DHT22;10075;50.924;4.396;2022-07-05T12:51:32;26.10;88.50
19829;DHT22;10075;50.924;4.396;2022-07-05T12:54:00;26.20;85.60
19829;DHT22;10075;50.924;4.396;2022-07-05T12:56:49;26.30;84.40
19829;DHT22;10075;50.924;4.396;2022-07-05T12:59:35;26.40;85.70
19829;DHT22;10075;50.924;4.396;2022-07-05T13:02:03;26.50;83.60
19829;DHT22;10075;50.924;4.396;2022-07-05T13:04:30;26.70;84.00
19829;DHT22;10075;50.924;4.396;2022-07-05T13:06:59;26.80;81.60
19829;DHT22;10075;50.924;4.396;2022-07-05T13:09:34;26.60;82.40
19829;DHT22;10075;50.924;4.396;2022-07-05T13:12:11;26.40;82.80
19829;DHT22;10075;50.924;4.396;2022-07-05T13:14:41;26.20;82.90
19829;DHT22;10075;50.924;4.396;2022-07-05T13:17:10;26.10;83.60
19829;DHT22;10075;50.924;4.396;2022-07-05T13:19:39;26.40;84.40
19829;DHT22;10075;50.924;4.396;2022-07-05T13:22:07;26.50;83.00
19829;DHT22;10075;50.924;4.396;2022-07-05T13:24:34;26.60;84.00
19829;DHT22;10075;50.924;4.396;2022-07-05T13:27:02;26.70;84.20
19829;DHT22;10075;50.924;4.396;2022-07-05T13:29:29;26.70;81.80
19829;DHT22;10075;50.924;4.396;2022-07-05T13:31:57;26.60;82.20
19829;DHT22;10075;50.924;4.396;2022-07-05T13:34:25;26.50;82.20
19829;DHT22;10075;50.924;4.396;2022-07-05T13:36:52;26.50;83.20
19829;DHT22;10075;50.924;4.396;2022-07-05T13:39:20;26.40;81.40
19829;DHT22;10075;50.924;4.396;2022-07-05T13:41:48;26.30;81.30
19829;DHT22;10075;50.924;4.396;2022-07-05T13:44:15;26.20;82.40
19829;DHT22;10075;50.924;4.396;2022-07-05T13:46:42;26.20;81.20
19829;DHT22;10075;50.924;4.396;2022-07-05T13:49:11;26.10;81.30
19829;DHT22;10075;50.924;4.396;2022-07-05T13:51:37;26.10;81.90
19829;DHT22;10075;50.924;4.396;2022-07-05T13:54:05;26.00;80.70
19829;DHT22;10075;50.924;4.396;2022-07-05T13:56:32;26.00;82.40
19829;DHT22;10075;50.924;4.396;2022-07-05T13:59:01;26.20;81.90
19829;DHT22;10075;50.924;4.396;2022-07-05T14:01:29;26.30;81.80
19829;DHT22;10075;50.924;4.396;2022-07-05T14:03:57;26.30;80.50
19829;DHT22;10075;50.924;4.396;2022-07-05T14:06:27;26.10;79.30
19829;DHT22;10075;50.924;4.396;2022-07-05T14:08:55;25.80;80.30
19829;DHT22;10075;50.924;4.396;2022-07-05T14:11:23;25.70;81.70
19829;DHT22;10075;50.924;4.396;2022-07-05T14:13:51;25.70;81.20
19829;DHT22;10075;50.924;4.396;2022-07-05T14:16:19;25.80;80.90
19829;DHT22;10075;50.924;4.396;2022-07-05T14:18:46;25.80;80.60
19829;DHT22;10075;50.924;4.396;2022-07-05T14:21:13;25.50;80.40
19829;DHT22;10075;50.924;4.396;2022-07-05T14:23:44;25.50;81.90
19829;DHT22;10075;50.924;4.396;2022-07-05T14:26:12;25.90;81.20
19829;DHT22;10075;50.924;4.396;2022-07-05T14:28:39;26.60;78.80
19829;DHT22;10075;50.924;4.396;2022-07-05T14:31:06;27.70;78.50
19829;DHT22;10075;50.924;4.396;2022-07-05T14:33:33;28.90;73.80
19829;DHT22;10075;50.924;4.396;2022-07-05T14:36:01;29.70;71.60
19829;DHT22;10075;50.924;4.396;2022-07-05T14:38:28;29.50;70.30
19829;DHT22;10075;50.924;4.396;2022-07-05T14:40:57;29.70;71.00
19829;DHT22;10075;50.924;4.396;2022-07-05T14:43:24;29.90;70.50
19829;DHT22;10075;50.924;4.396;2022-07-05T14:45:50;30.70;68.90
19829;DHT22;10075;50.924;4.396;2022-07-05T14:48:17;31.10;66.80
19829;DHT22;10075;50.924;4.396;2022-07-05T14:50:45;30.30;67.60
19829;DHT22;10075;50.924;4.396;2022-07-05T14:53:14;30.40;67.60
19829;DHT22;10075;50.924;4.396;2022-07-05T14:55:42;30.90;65.90
19829;DHT22;10075;50.924;4.396;2022-07-05T14:58:11;30.70;66.50
19829;DHT22;10075;50.924;4.396;2022-07-05T15:00:38;30.70;66.70
19829;DHT22;10075;50.924;4.396;2022-07-05T15:03:05;31.90;64.70
19829;DHT22;10075;50.924;4.396;2022-07-05T15:05:34;32.50;62.00
19829;DHT22;10075;50.924;4.396;2022-07-05T15:08:01;32.60;62.80
19829;DHT22;10075;50.924;4.396;2022-07-05T15:10:28;33.20;60.60
19829;DHT22;10075;50.924;4.396;2022-07-05T15:12:57;33.00;60.10
19829;DHT22;10075;50.924;4.396;2022-07-05T15:15:25;32.60;59.90
19829;DHT22;10075;50.924;4.396;2022-07-05T15:17:52;32.30;60.20
19829;DHT22;10075;50.924;4.396;2022-07-05T15:20:22;32.30;60.80
19829;DHT22;10075;50.924;4.396;2022-07-05T15:22:49;32.70;60.00
19829;DHT22;10075;50.924;4.396;2022-07-05T15:25:16;32.90;58.60
19829;DHT22;10075;50.924;4.396;2022-07-05T15:27:43;33.50;58.60
19829;DHT22;10075;50.924;4.396;2022-07-05T15:30:11;34.30;57.00
19829;DHT22;10075;50.924;4.396;2022-07-05T15:32:41;34.70;56.10
19829;DHT22;10075;50.924;4.396;2022-07-05T15:35:09;35.30;55.70
19829;DHT22;10075;50.924;4.396;2022-07-05T15:37:36;36.10;53.50
19829;DHT22;10075;50.924;4.396;2022-07-05T15:40:03;36.10;52.50
19829;DHT22;10075;50.924;4.396;2022-07-05T15:42:30;36.00;52.70